sensor_id;sensor_type;location;lat;lon;timestamp;temperature;humidity
5617;DHT22;2830;50.656;7.568;2023-05-03T00:00:08;2.80;99.90
5617;DHT22;2830;50.656;7.568;2023-05-03T00:02:35;2.70;99.90
5617;DHT22;2830;50.656;7.568;2023-05-03T00:05:06;2.60;99.90
5617;DHT22;2830;50.656;7.568;2023-05-03T00:07:41;2.60;99.90
5617;DHT22;2830;50.656;7.568;2023-05-03T00:10:09;2.50;99.90
5617;DHT22;2830;50.656;7.568;2023-05-03T00:12:39;2.50;99.90
5617;DHT22;2830;50.656;7.568;2023-05-03T00:15:06;2.50;99.90
5617;DHT22;2830;50.656;7.568;2023-05-03T00:17:34;2.50;99.90
5617;DHT22;2830;50.656;7.568;2023-05-03T00:20:01;2.30;99.90
5617;DHT22;2830;50.656;7.568;2023-05-03T00:22:29;2.30;99.90
5617;DHT22;2830;50.656;7.568;2023-05-03T00:24:56;2.30;99.90
5617;DHT22;2830;50.656;7.568;2023-05-03T00:27:22;2.20;99.90
5617;DHT22;2830;50.656;7.568;2023-05-03T00:29:52;2.20;99.90
5617;DHT22;2830;50.656;7.568;2023-05-03T00:32:22;2.30;99.90
5617;DHT22;2830;50.656;7.568;2023-05-03T00:34:55;2.30;99.90
5617;DHT22;2830;50.656;7.568;2023-05-03T00:37:23;2.20;99.90
5617;DHT22;2830;50.656;7.568;2023-05-03T00:39:51;2.30;99.90
5617;DHT22;2830;50.656;7.568;2023-05-03T00:42:18;2.30;99.90
5617;DHT22;2830;50.656;7.568;2023-05-03T00:44:44;2.20;99.90
5617;DHT22;2830;50.656;7.568;2023-05-03T00:47:11;2.10;99.90
5617;DHT22;2830;50.656;7.568;2023-05-03T00:49:38;1.90;99.90
5617;DHT22;2830;50.656;7.568;2023-05-03T00:52:05;1.90;99.90
5617;DHT22;2830;50.656;7.568;2023-05-03T00:54:32;1.90;99.90
5617;DHT22;2830;50.656;7.568;2023-05-03T00:57:01;2.00;99.90
5617;DHT22;2830;50.656;7.568;2023-05-03T00:59:31;2.00;99.90
5617;DHT22;2830;50.656;7.568;2023-05-03T01:01:58;1.90;99.90
5617;DHT22;2830;50.656;7.568;2023-05-03T01:04:26;1.80;99.90
5617;DHT22;2830;50.656;7.568;2023-05-03T01:07:02;1.90;99.90
5617;DHT22;2830;50.656;7.568;2023-05-03T01:09:38;1.80;99.90
5617;DHT22;2830;50.656;7.568;2023-05-03T01:12:14;1.60;99.90
5617;DHT22;2830;50.656;7.568;2023-05-03T01:15:01;1.70;99.90
5617;DHT22;2830;50.656;7.568;2023-05-03T01:17:38;1.60;99.90
5617;DHT22;2830;50.656;7.568;2023-05-03T01:20:07;1.60;99.90
5617;DHT22;2830;50.656;7.568;2023-05-03T01:23:09;1.70;99.90
5617;DHT22;2830;50.656;7.568;2023-05-03T01:25:37;1.60;99.90
5617;DHT22;2830;50.656;7.568;2023-05-03T01:28:04;1.60;99.90
5617;DHT22;2830;50.656;7.568;2023-05-03T01:30:32;1.50;99.90
5617;DHT22;2830;50.656;7.568;2023-05-03T01:33:32;1.50;99.90
5617;DHT22;2830;50.656;7.568;2023-05-03T01:36:09;1.50;99.90
5617;DHT22;2830;50.656;7.568;2023-05-03T01:38:37;1.50;99.90
5617;DHT22;2830;50.656;7.568;2023-05-03T01:41:10;1.40;99.90
5617;DHT22;2830;50.656;7.568;2023-05-03T01:43:39;1.40;99.90
5617;DHT22;2830;50.656;7.568;2023-05-03T01:46:06;1.40;99.90
5617;DHT22;2830;50.656;7.568;2023-05-03T01:48:33;1.40;99.90
5617;DHT22;2830;50.656;7.568;2023-05-03T01:50:59;1.40;99.90
5617;DHT22;2830;50.656;7.568;2023-05-03T01:53:26;1.40;99.90
5617;DHT22;2830;50.656;7.568;2023-05-03T01:55:52;1.40;99.90
5617;DHT22;2830;50.656;7.568;2023-05-03T01:58:19;1.40;99.90
5617;DHT22;2830;50.656;7.568;2023-05-03T02:00:47;1.30;99.90
5617;DHT22;2830;50.656;7.568;2023-05-03T02:03:14;1.20;99.90
5617;DHT22;2830;50.656;7.568;2023-05-03T02:05:41;1.20;99.90
5617;DHT22;2830;50.656;7.568;2023-05-03T02:08:07;1.30;99.90
5617;DHT22;2830;50.656;7.568;2023-05-03T02:10:34;1.30;99.90
5617;DHT22;2830;50.656;7.568;2023-05-03T02:13:01;1.30;99.90
5617;DHT22;2830;50.656;7.568;2023-05-03T02:15:27;1.30;99.90
5617;DHT22;2830;50.656;7.568;2023-05-03T02:17:54;1.20;99.90
5617;DHT22;2830;50.656;7.568;2023-05-03T02:20:21;1.20;99.90
5617;DHT22;2830;50.656;7.568;2023-05-03T02:22:48;1.20;99.90
5617;DHT22;2830;50.656;7.568;2023-05-03T02:25:14;1.10;99.90
5617;DHT22;2830;50.656;7.568;2023-05-03T02:27:41;1.10;99.90
5617;DHT22;2830;50.656;7.568;2023-05-03T02:30:08;1.10;99.90
5617;DHT22;2830;50.656;7.568;2023-05-03T02:32:35;1.10;99.90
5617;DHT22;2830;50.656;7.568;2023-05-03T02:35:01;1.10;99.90
5617;DHT22;2830;50.656;7.568;2023-05-03T02:37:28;1.20;99.90
5617;DHT22;2830;50.656;7.568;2023-05-03T02:39:55;1.20;99.90
5617;DHT22;2830;50.656;7.568;2023-05-03T02:42:22;1.10;99.90
5617;DHT22;2830;50.656;7.568;2023-05-03T02:44:49;1.10;99.90
5617;DHT22;2830;50.656;7.568;2023-05-03T02:47:16;1.20;99.90
5617;DHT22;2830;50.656;7.568;2023-05-03T02:49:42;1.10;99.90
5617;DHT22;2830;50.656;7.568;2023-05-03T02:52:09;1.00;99.90
5617;DHT22;2830;50.656;7.568;2023-05-03T02:54:35;1.00;99.90
5617;DHT22;2830;50.656;7.568;2023-05-03T02:57:02;1.00;99.90
5617;DHT22;2830;50.656;7.568;2023-05-03T02:59:29;1.00;99.90
5617;DHT22;2830;50.656;7.568;2023-05-03T03:01:58;1.00;99.90
5617;DHT22;2830;50.656;7.568;2023-05-03T03:04:27;1.00;99.90
5617;DHT22;2830;50.656;7.568;2023-05-03T03:06:53;1.00;99.90
5617;DHT22;2830;50.656;7.568;2023-05-03T03:09:22;0.90;99.90
5617;DHT22;2830;50.656;7.568;2023-05-03T03:11:50;0.90;99.90
5617;DHT22;2830;50.656;7.568;2023-05-03T03:14:17;0.90;99.90
5617;DHT22;2830;50.656;7.568;2023-05-03T03:16:45;1.00;99.90
5617;DHT22;2830;50.656;7.568;2023-05-03T03:19:11;0.90;99.90
5617;DHT22;2830;50.656;7.568;2023-05-03T03:21:38;0.80;99.90
5617;DHT22;2830;50.656;7.568;2023-05-03T03:24:08;0.70;99.90
5617;DHT22;2830;50.656;7.568;2023-05-03T03:26:36;0.70;99.90
5617;DHT22;2830;50.656;7.568;2023-05-03T03:29:03;0.80;99.90
5617;DHT22;2830;50.656;7.568;2023-05-03T03:31:30;0.80;99.90
5617;DHT22;2830;50.656;7.568;2023-05-03T03:33:58;0.70;99.90
5617;DHT22;2830;50.656;7.568;2023-05-03T03:36:26;0.70;99.90
5617;DHT22;2830;50.656;7.568;2023-05-03T03:38:54;0.70;99.90
5617;DHT22;2830;50.656;7.568;2023-05-03T03:41:20;0.70;99.90
5617;DHT22;2830;50.656;7.568;2023-05-03T03:43:47;0.70;99.90
5617;DHT22;2830;50.656;7.568;2023-05-03T03:46:14;0.70;99.90
5617;DHT22;2830;50.656;7.568;2023-05-03T03:48:42;0.70;99.90
5617;DHT22;2830;50.656;7.568;2023-05-03T03:51:09;0.70;99.90
5617;DHT22;2830;50.656;7.568;2023-05-03T03:53:36;0.70;99.90
5617;DHT22;2830;50.656;7.568;2023-05-03T03:56:03;0.70;99.90
5617;DHT22;2830;50.656;7.568;2023-05-03T03:58:31;0.70;99.90
5617;DHT22;2830;50.656;7.568;2023-05-03T04:00:57;0.70;99.90
5617;DHT22;2830;50.656;7.568;2023-05-03T04:03:26;0.70;99.90
5617;DHT22;2830;50.656;7.568;2023-05-03T04:05:53;0.70;99.90
5617;DHT22;2830;50.656;7.568;2023-05-03T04:08:19;0.70;99.90
5617;DHT22;2830;50.656;7.568;2023-05-03T04:10:46;0.70;99.90
5617;DHT22;2830;50.656;7.568;2023-05-03T04:13:13;0.60;99.90
5617;DHT22;2830;50.656;7.568;2023-05-03T04:15:39;0.70;99.90
5617;DHT22;2830;50.656;7.568;2023-05-03T04:18:06;0.70;99.90
5617;DHT22;2830;50.656;7.568;2023-05-03T04:20:34;0.80;99.90
5617;DHT22;2830;50.656;7.568;2023-05-03T04:23:02;0.80;99.90
5617;DHT22;2830;50.656;7.568;2023-05-03T04:25:28;0.90;99.90
5617;DHT22;2830;50.656;7.568;2023-05-03T04:27:57;0.90;99.90
5617;DHT22;2830;50.656;7.568;2023-05-03T04:30:24;0.90;99.90
5617;DHT22;2830;50.656;7.568;2023-05-03T04:32:51;0.90;99.90
5617;DHT22;2830;50.656;7.568;2023-05-03T04:35:19;0.90;99.90
5617;DHT22;2830;50.656;7.568;2023-05-03T04:37:46;1.00;99.90
5617;DHT22;2830;50.656;7.568;2023-05-03T04:40:13;1.00;99.90
5617;DHT22;2830;50.656;7.568;2023-05-03T04:42:40;1.00;99.90
5617;DHT22;2830;50.656;7.568;2023-05-03T04:45:08;1.00;99.90
5617;DHT22;2830;50.656;7.568;2023-05-03T04:47:35;1.00;99.90
5617;DHT22;2830;50.656;7.568;2023-05-03T04:50:02;1.10;99.90
5617;DHT22;2830;50.656;7.568;2023-05-03T04:52:29;1.10;99.90
5617;DHT22;2830;50.656;7.568;2023-05-03T04:54:57;1.10;99.90
5617;DHT22;2830;50.656;7.568;2023-05-03T04:57:23;1.10;99.90
5617;DHT22;2830;50.656;7.568;2023-05-03T04:59:50;1.10;99.90
5617;DHT22;2830;50.656;7.568;2023-05-03T05:02:19;1.10;99.90
5617;DHT22;2830;50.656;7.568;2023-05-03T05:04:46;1.20;99.90
5617;DHT22;2830;50.656;7.568;2023-05-03T05:07:13;1.30;99.90
5617;DHT22;2830;50.656;7.568;2023-05-03T05:09:40;1.30;99.90
5617;DHT22;2830;50.656;7.568;2023-05-03T05:12:06;1.40;99.90
5617;DHT22;2830;50.656;7.568;2023-05-03T05:14:33;1.50;99.90
5617;DHT22;2830;50.656;7.568;2023-05-03T05:17:00;1.50;99.90
5617;DHT22;2830;50.656;7.568;2023-05-03T05:19:26;1.50;99.90
5617;DHT22;2830;50.656;7.568;2023-05-03T05:21:54;1.50;99.90
5617;DHT22;2830;50.656;7.568;2023-05-03T05:24:21;1.50;99.90
5617;DHT22;2830;50.656;7.568;2023-05-03T05:26:48;1.60;99.90
5617;DHT22;2830;50.656;7.568;2023-05-03T05:29:14;1.60;99.90
5617;DHT22;2830;50.656;7.568;2023-05-03T05:31:41;1.60;99.90
5617;DHT22;2830;50.656;7.568;2023-05-03T05:34:08;1.60;99.90
5617;DHT22;2830;50.656;7.568;2023-05-03T05:36:35;1.60;99.90
5617;DHT22;2830;50.656;7.568;2023-05-03T05:39:02;1.60;99.90
5617;DHT22;2830;50.656;7.568;2023-05-03T05:41:30;1.70;99.90
5617;DHT22;2830;50.656;7.568;2023-05-03T05:43:58;2.00;99.90
5617;DHT22;2830;50.656;7.568;2023-05-03T05:46:24;2.30;99.90
5617;DHT22;2830;50.656;7.568;2023-05-03T05:48:51;2.90;99.90
5617;DHT22;2830;50.656;7.568;2023-05-03T05:51:18;3.40;99.90
5617;DHT22;2830;50.656;7.568;2023-05-03T05:53:45;3.80;99.90
5617;DHT22;2830;50.656;7.568;2023-05-03T05:56:12;4.00;99.90
5617;DHT22;2830;50.656;7.568;2023-05-03T05:58:39;4.80;99.90
5617;DHT22;2830;50.656;7.568;2023-05-03T06:01:05;4.90;99.30
5617;DHT22;2830;50.656;7.568;2023-05-03T06:03:33;5.00;99.60
5617;DHT22;2830;50.656;7.568;2023-05-03T06:05:59;5.50;98.60
5617;DHT22;2830;50.656;7.568;2023-05-03T06:08:27;5.70;98.00
5617;DHT22;2830;50.656;7.568;2023-05-03T06:10:53;5.90;97.80
5617;DHT22;2830;50.656;7.568;2023-05-03T06:13:21;6.30;97.40
5617;DHT22;2830;50.656;7.568;2023-05-03T06:15:48;6.80;95.90
5617;DHT22;2830;50.656;7.568;2023-05-03T06:18:14;6.90;94.80
5617;DHT22;2830;50.656;7.568;2023-05-03T06:20:41;6.80;95.40
5617;DHT22;2830;50.656;7.568;2023-05-03T06:23:08;7.20;96.20
5617;DHT22;2830;50.656;7.568;2023-05-03T06:25:35;7.50;94.70
5617;DHT22;2830;50.656;7.568;2023-05-03T06:28:01;7.60;94.90
5617;DHT22;2830;50.656;7.568;2023-05-03T06:30:28;8.10;93.70
5617;DHT22;2830;50.656;7.568;2023-05-03T06:32:55;8.20;93.40
5617;DHT22;2830;50.656;7.568;2023-05-03T06:35:22;8.30;93.40
5617;DHT22;2830;50.656;7.568;2023-05-03T06:37:49;8.50;92.70
5617;DHT22;2830;50.656;7.568;2023-05-03T06:40:16;8.50;93.70
5617;DHT22;2830;50.656;7.568;2023-05-03T06:42:43;8.80;93.80
5617;DHT22;2830;50.656;7.568;2023-05-03T06:45:10;9.20;91.80
5617;DHT22;2830;50.656;7.568;2023-05-03T06:47:37;9.40;91.90
5617;DHT22;2830;50.656;7.568;2023-05-03T06:50:05;9.80;91.20
5617;DHT22;2830;50.656;7.568;2023-05-03T06:52:32;10.20;90.20
5617;DHT22;2830;50.656;7.568;2023-05-03T06:54:59;10.30;90.10
5617;DHT22;2830;50.656;7.568;2023-05-03T06:57:26;11.10;88.50
5617;DHT22;2830;50.656;7.568;2023-05-03T06:59:54;12.00;84.80
5617;DHT22;2830;50.656;7.568;2023-05-03T07:02:21;13.40;78.50
5617;DHT22;2830;50.656;7.568;2023-05-03T07:04:48;14.00;77.20
5617;DHT22;2830;50.656;7.568;2023-05-03T07:07:15;14.20;72.30
5617;DHT22;2830;50.656;7.568;2023-05-03T07:09:42;13.90;72.40
5617;DHT22;2830;50.656;7.568;2023-05-03T07:12:10;13.60;76.60
5617;DHT22;2830;50.656;7.568;2023-05-03T07:14:38;13.30;75.10
5617;DHT22;2830;50.656;7.568;2023-05-03T07:17:05;13.10;78.00
5617;DHT22;2830;50.656;7.568;2023-05-03T07:19:32;13.20;77.20
5617;DHT22;2830;50.656;7.568;2023-05-03T07:21:59;13.60;75.70
5617;DHT22;2830;50.656;7.568;2023-05-03T07:24:28;14.00;75.20
5617;DHT22;2830;50.656;7.568;2023-05-03T07:26:55;14.70;71.50
5617;DHT22;2830;50.656;7.568;2023-05-03T07:29:22;14.80;66.40
5617;DHT22;2830;50.656;7.568;2023-05-03T07:31:49;15.50;63.70
5617;DHT22;2830;50.656;7.568;2023-05-03T07:34:19;16.00;64.40
5617;DHT22;2830;50.656;7.568;2023-05-03T07:36:45;16.10;64.10
5617;DHT22;2830;50.656;7.568;2023-05-03T07:39:12;16.00;66.10
5617;DHT22;2830;50.656;7.568;2023-05-03T07:41:38;16.30;63.10
5617;DHT22;2830;50.656;7.568;2023-05-03T07:44:06;16.40;61.10
5617;DHT22;2830;50.656;7.568;2023-05-03T07:46:33;17.00;58.40
5617;DHT22;2830;50.656;7.568;2023-05-03T07:49:02;16.80;59.10
5617;DHT22;2830;50.656;7.568;2023-05-03T07:51:33;17.40;56.00
5617;DHT22;2830;50.656;7.568;2023-05-03T07:54:00;17.60;54.80
5617;DHT22;2830;50.656;7.568;2023-05-03T07:56:27;17.90;54.10
5617;DHT22;2830;50.656;7.568;2023-05-03T07:58:54;18.70;53.30
5617;DHT22;2830;50.656;7.568;2023-05-03T08:01:35;18.70;54.20
5617;DHT22;2830;50.656;7.568;2023-05-03T08:04:01;19.10;50.50
5617;DHT22;2830;50.656;7.568;2023-05-03T08:06:29;19.60;52.70
5617;DHT22;2830;50.656;7.568;2023-05-03T08:08:57;19.30;47.80
5617;DHT22;2830;50.656;7.568;2023-05-03T08:11:26;19.30;49.30
5617;DHT22;2830;50.656;7.568;2023-05-03T08:13:53;18.60;48.30
5617;DHT22;2830;50.656;7.568;2023-05-03T08:16:19;18.60;48.10
5617;DHT22;2830;50.656;7.568;2023-05-03T08:18:47;18.90;48.40
5617;DHT22;2830;50.656;7.568;2023-05-03T08:21:14;19.30;46.00
5617;DHT22;2830;50.656;7.568;2023-05-03T08:23:42;19.20;45.10
5617;DHT22;2830;50.656;7.568;2023-05-03T08:26:08;19.10;45.10
5617;DHT22;2830;50.656;7.568;2023-05-03T08:28:36;19.00;43.90
5617;DHT22;2830;50.656;7.568;2023-05-03T08:31:03;19.10;44.80
5617;DHT22;2830;50.656;7.568;2023-05-03T08:33:30;19.20;45.90
5617;DHT22;2830;50.656;7.568;2023-05-03T08:35:57;19.40;44.40
5617;DHT22;2830;50.656;7.568;2023-05-03T08:38:24;19.70;45.20
5617;DHT22;2830;50.656;7.568;2023-05-03T08:40:54;20.00;43.90
5617;DHT22;2830;50.656;7.568;2023-05-03T08:43:23;20.10;43.00
5617;DHT22;2830;50.656;7.568;2023-05-03T08:45:52;20.10;42.40
5617;DHT22;2830;50.656;7.568;2023-05-03T08:48:20;19.80;43.60
5617;DHT22;2830;50.656;7.568;2023-05-03T08:50:48;20.40;42.80
5617;DHT22;2830;50.656;7.568;2023-05-03T08:53:17;20.80;41.80
5617;DHT22;2830;50.656;7.568;2023-05-03T08:55:44;20.90;41.40
5617;DHT22;2830;50.656;7.568;2023-05-03T08:58:11;21.30;40.40
5617;DHT22;2830;50.656;7.568;2023-05-03T09:00:39;20.80;40.90
5617;DHT22;2830;50.656;7.568;2023-05-03T09:03:10;20.80;40.60
5617;DHT22;2830;50.656;7.568;2023-05-03T09:05:37;21.30;44.40
5617;DHT22;2830;50.656;7.568;2023-05-03T09:08:10;21.70;40.40
5617;DHT22;2830;50.656;7.568;2023-05-03T09:10:40;21.90;39.50
5617;DHT22;2830;50.656;7.568;2023-05-03T09:13:09;22.70;40.10
5617;DHT22;2830;50.656;7.568;2023-05-03T09:15:36;23.10;37.60
5617;DHT22;2830;50.656;7.568;2023-05-03T09:18:16;22.80;37.00
5617;DHT22;2830;50.656;7.568;2023-05-03T09:20:45;22.90;37.00
5617;DHT22;2830;50.656;7.568;2023-05-03T09:23:28;22.40;37.30
5617;DHT22;2830;50.656;7.568;2023-05-03T09:25:55;22.60;38.90
5617;DHT22;2830;50.656;7.568;2023-05-03T09:28:22;22.50;38.80
5617;DHT22;2830;50.656;7.568;2023-05-03T09:30:49;22.60;36.90
5617;DHT22;2830;50.656;7.568;2023-05-03T09:33:29;23.10;35.60
5617;DHT22;2830;50.656;7.568;2023-05-03T09:35:58;23.20;38.00
5617;DHT22;2830;50.656;7.568;2023-05-03T09:38:33;22.90;37.70
5617;DHT22;2830;50.656;7.568;2023-05-03T09:41:00;23.20;37.80
5617;DHT22;2830;50.656;7.568;2023-05-03T09:43:27;22.90;38.80
5617;DHT22;2830;50.656;7.568;2023-05-03T09:46:11;23.50;38.70
5617;DHT22;2830;50.656;7.568;2023-05-03T09:48:39;24.10;36.80
5617;DHT22;2830;50.656;7.568;2023-05-03T09:51:07;24.30;32.60
5617;DHT22;2830;50.656;7.568;2023-05-03T09:53:35;24.40;37.30
5617;DHT22;2830;50.656;7.568;2023-05-03T09:56:04;24.50;36.60
5617;DHT22;2830;50.656;7.568;2023-05-03T09:58:31;24.70;37.60
5617;DHT22;2830;50.656;7.568;2023-05-03T10:01:00;25.10;36.60
5617;DHT22;2830;50.656;7.568;2023-05-03T10:03:44;24.10;36.20
5617;DHT22;2830;50.656;7.568;2023-05-03T10:06:21;23.90;36.60
5617;DHT22;2830;50.656;7.568;2023-05-03T10:09:04;24.00;37.80
5617;DHT22;2830;50.656;7.568;2023-05-03T10:11:34;23.90;37.70
5617;DHT22;2830;50.656;7.568;2023-05-03T10:14:04;24.00;41.20
5617;DHT22;2830;50.656;7.568;2023-05-03T10:16:35;24.50;39.40
5617;DHT22;2830;50.656;7.568;2023-05-03T10:22:02;25.10;36.60
5617;DHT22;2830;50.656;7.568;2023-05-03T10:24:33;25.30;32.60
5617;DHT22;2830;50.656;7.568;2023-05-03T10:27:01;25.10;33.60
5617;DHT22;2830;50.656;7.568;2023-05-03T10:32:28;25.60;31.10
5617;DHT22;2830;50.656;7.568;2023-05-03T10:35:00;26.00;31.30
5617;DHT22;2830;50.656;7.568;2023-05-03T10:37:31;25.60;32.50
5617;DHT22;2830;50.656;7.568;2023-05-03T10:40:05;24.70;38.00
5617;DHT22;2830;50.656;7.568;2023-05-03T10:42:32;24.60;32.50
5617;DHT22;2830;50.656;7.568;2023-05-03T10:45:00;25.10;31.80
5617;DHT22;2830;50.656;7.568;2023-05-03T10:47:27;25.50;32.10
5617;DHT22;2830;50.656;7.568;2023-05-03T10:55:19;27.00;29.60
5617;DHT22;2830;50.656;7.568;2023-05-03T10:57:47;27.00;31.10
5617;DHT22;2830;50.656;7.568;2023-05-03T11:00:35;26.00;29.70
5617;DHT22;2830;50.656;7.568;2023-05-03T11:05:30;27.00;33.90
5617;DHT22;2830;50.656;7.568;2023-05-03T11:08:17;26.40;31.10
5617;DHT22;2830;50.656;7.568;2023-05-03T11:10:45;26.80;29.60
5617;DHT22;2830;50.656;7.568;2023-05-03T11:13:13;26.90;29.80
5617;DHT22;2830;50.656;7.568;2023-05-03T11:15:41;27.30;30.40
5617;DHT22;2830;50.656;7.568;2023-05-03T11:18:09;27.90;29.10
5617;DHT22;2830;50.656;7.568;2023-05-03T11:20:37;28.40;29.50
5617;DHT22;2830;50.656;7.568;2023-05-03T11:23:04;28.40;33.10
5617;DHT22;2830;50.656;7.568;2023-05-03T11:25:32;27.80;30.20
5617;DHT22;2830;50.656;7.568;2023-05-03T11:28:00;27.80;32.00
5617;DHT22;2830;50.656;7.568;2023-05-03T11:30:32;26.80;30.50
5617;DHT22;2830;50.656;7.568;2023-05-03T11:33:00;26.90;31.90
5617;DHT22;2830;50.656;7.568;2023-05-03T11:35:28;25.90;30.80
5617;DHT22;2830;50.656;7.568;2023-05-03T11:37:56;26.40;32.30
5617;DHT22;2830;50.656;7.568;2023-05-03T11:40:23;27.10;33.50
5617;DHT22;2830;50.656;7.568;2023-05-03T11:47:52;27.60;29.30
5617;DHT22;2830;50.656;7.568;2023-05-03T11:50:27;28.40;31.40
5617;DHT22;2830;50.656;7.568;2023-05-03T11:53:08;28.40;29.10
5617;DHT22;2830;50.656;7.568;2023-05-03T11:55:44;27.90;29.30
5617;DHT22;2830;50.656;7.568;2023-05-03T11:58:18;27.10;30.10
5617;DHT22;2830;50.656;7.568;2023-05-03T12:00:47;26.60;30.60
5617;DHT22;2830;50.656;7.568;2023-05-03T12:03:19;25.50;30.00
5617;DHT22;2830;50.656;7.568;2023-05-03T12:05:47;25.60;30.60
5617;DHT22;2830;50.656;7.568;2023-05-03T12:08:16;25.60;30.10
5617;DHT22;2830;50.656;7.568;2023-05-03T12:10:50;24.90;30.20
5617;DHT22;2830;50.656;7.568;2023-05-03T12:13:31;25.20;33.00
5617;DHT22;2830;50.656;7.568;2023-05-03T12:16:01;24.80;31.70
5617;DHT22;2830;50.656;7.568;2023-05-03T12:18:51;24.20;30.60
5617;DHT22;2830;50.656;7.568;2023-05-03T12:21:23;24.30;32.60
5617;DHT22;2830;50.656;7.568;2023-05-03T12:23:54;24.40;31.10
5617;DHT22;2830;50.656;7.568;2023-05-03T12:26:23;24.90;32.10
5617;DHT22;2830;50.656;7.568;2023-05-03T12:28:51;24.80;35.90
5617;DHT22;2830;50.656;7.568;2023-05-03T12:31:21;24.60;32.20
5617;DHT22;2830;50.656;7.568;2023-05-03T12:33:49;24.40;31.10
5617;DHT22;2830;50.656;7.568;2023-05-03T12:36:36;23.90;34.10
5617;DHT22;2830;50.656;7.568;2023-05-03T12:39:04;24.50;36.30
5617;DHT22;2830;50.656;7.568;2023-05-03T12:41:35;24.40;32.00
5617;DHT22;2830;50.656;7.568;2023-05-03T12:44:05;24.80;32.70
5617;DHT22;2830;50.656;7.568;2023-05-03T12:46:36;25.00;32.40
5617;DHT22;2830;50.656;7.568;2023-05-03T12:49:04;24.50;32.40
5617;DHT22;2830;50.656;7.568;2023-05-03T12:51:34;24.20;33.60
5617;DHT22;2830;50.656;7.568;2023-05-03T12:54:01;23.50;33.40
5617;DHT22;2830;50.656;7.568;2023-05-03T12:56:35;22.70;32.60
5617;DHT22;2830;50.656;7.568;2023-05-03T12:59:06;22.60;31.50
5617;DHT22;2830;50.656;7.568;2023-05-03T13:01:52;22.90;32.20
5617;DHT22;2830;50.656;7.568;2023-05-03T13:04:22;22.10;31.80
5617;DHT22;2830;50.656;7.568;2023-05-03T13:07:09;22.70;34.20
5617;DHT22;2830;50.656;7.568;2023-05-03T13:09:40;23.20;30.00
5617;DHT22;2830;50.656;7.568;2023-05-03T13:12:26;23.00;31.00
5617;DHT22;2830;50.656;7.568;2023-05-03T13:14:53;22.50;32.70
5617;DHT22;2830;50.656;7.568;2023-05-03T13:17:20;22.70;34.20
5617;DHT22;2830;50.656;7.568;2023-05-03T13:19:49;22.30;32.60
5617;DHT22;2830;50.656;7.568;2023-05-03T13:22:16;22.10;32.20
5617;DHT22;2830;50.656;7.568;2023-05-03T13:24:45;21.90;32.90
5617;DHT22;2830;50.656;7.568;2023-05-03T13:27:12;22.00;34.30
5617;DHT22;2830;50.656;7.568;2023-05-03T13:29:39;22.30;34.60
5617;DHT22;2830;50.656;7.568;2023-05-03T13:32:07;22.20;33.80
5617;DHT22;2830;50.656;7.568;2023-05-03T13:34:34;21.90;32.40
5617;DHT22;2830;50.656;7.568;2023-05-03T13:37:02;21.50;33.30
5617;DHT22;2830;50.656;7.568;2023-05-03T13:39:30;21.30;34.50
5617;DHT22;2830;50.656;7.568;2023-05-03T13:41:56;21.60;42.30
5617;DHT22;2830;50.656;7.568;2023-05-03T13:44:23;21.50;35.40
5617;DHT22;2830;50.656;7.568;2023-05-03T13:46:52;21.10;34.70
5617;DHT22;2830;50.656;7.568;2023-05-03T13:49:19;20.90;34.90
5617;DHT22;2830;50.656;7.568;2023-05-03T13:51:46;21.00;36.20
5617;DHT22;2830;50.656;7.568;2023-05-03T13:54:13;20.70;36.30
5617;DHT22;2830;50.656;7.568;2023-05-03T13:56:40;20.60;35.80
5617;DHT22;2830;50.656;7.568;2023-05-03T13:59:10;20.60;35.80
5617;DHT22;2830;50.656;7.568;2023-05-03T14:01:37;20.50;33.30
5617;DHT22;2830;50.656;7.568;2023-05-03T14:04:05;20.40;35.50
5617;DHT22;2830;50.656;7.568;2023-05-03T14:06:32;20.30;36.10
5617;DHT22;2830;50.656;7.568;2023-05-03T14:08:59;20.10;37.00
5617;DHT22;2830;50.656;7.568;2023-05-03T14:11:28;20.10;34.30
5617;DHT22;2830;50.656;7.568;2023-05-03T14:13:55;20.10;36.20
5617;DHT22;2830;50.656;7.568;2023-05-03T14:16:24;20.20;39.00
5617;DHT22;2830;50.656;7.568;2023-05-03T14:18:55;20.30;38.40
5617;DHT22;2830;50.656;7.568;2023-05-03T14:21:22;20.10;35.60
5617;DHT22;2830;50.656;7.568;2023-05-03T14:23:49;20.10;36.40
5617;DHT22;2830;50.656;7.568;2023-05-03T14:26:16;20.20;35.90
5617;DHT22;2830;50.656;7.568;2023-05-03T14:28:43;20.20;38.00
5617;DHT22;2830;50.656;7.568;2023-05-03T14:31:10;20.20;36.60
5617;DHT22;2830;50.656;7.568;2023-05-03T14:33:37;19.90;36.60
5617;DHT22;2830;50.656;7.568;2023-05-03T14:36:07;19.80;38.10
5617;DHT22;2830;50.656;7.568;2023-05-03T14:38:35;19.80;36.50
5617;DHT22;2830;50.656;7.568;2023-05-03T14:41:02;19.80;38.20
5617;DHT22;2830;50.656;7.568;2023-05-03T14:43:29;19.80;37.10
5617;DHT22;2830;50.656;7.568;2023-05-03T14:45:56;19.60;36.60
5617;DHT22;2830;50.656;7.568;2023-05-03T14:48:23;19.60;37.80
5617;DHT22;2830;50.656;7.568;2023-05-03T14:50:50;19.60;37.30
5617;DHT22;2830;50.656;7.568;2023-05-03T14:53:17;19.60;35.70
5617;DHT22;2830;50.656;7.568;2023-05-03T14:55:44;19.50;36.70
5617;DHT22;2830;50.656;7.568;2023-05-03T14:58:11;19.30;35.90
5617;DHT22;2830;50.656;7.568;2023-05-03T15:00:40;19.40;37.60
5617;DHT22;2830;50.656;7.568;2023-05-03T15:03:07;19.40;39.80
5617;DHT22;2830;50.656;7.568;2023-05-03T15:05:44;19.30;37.90
5617;DHT22;2830;50.656;7.568;2023-05-03T15:08:13;19.20;38.30
5617;DHT22;2830;50.656;7.568;2023-05-03T15:10:41;19.20;39.30
5617;DHT22;2830;50.656;7.568;2023-05-03T15:13:11;19.20;39.80
5617;DHT22;2830;50.656;7.568;2023-05-03T15:15:39;19.30;40.90
5617;DHT22;2830;50.656;7.568;2023-05-03T15:18:07;19.20;38.80
5617;DHT22;2830;50.656;7.568;2023-05-03T15:20:34;19.10;40.50
5617;DHT22;2830;50.656;7.568;2023-05-03T15:23:02;19.00;40.40
5617;DHT22;2830;50.656;7.568;2023-05-03T15:25:30;19.10;40.40
5617;DHT22;2830;50.656;7.568;2023-05-03T15:27:57;19.00;38.40
5617;DHT22;2830;50.656;7.568;2023-05-03T15:30:27;18.90;38.50
5617;DHT22;2830;50.656;7.568;2023-05-03T15:32:54;18.80;39.70
5617;DHT22;2830;50.656;7.568;2023-05-03T15:35:21;18.90;39.60
5617;DHT22;2830;50.656;7.568;2023-05-03T15:37:47;18.80;38.60
5617;DHT22;2830;50.656;7.568;2023-05-03T15:40:14;18.90;39.80
5617;DHT22;2830;50.656;7.568;2023-05-03T15:42:42;18.90;39.10
5617;DHT22;2830;50.656;7.568;2023-05-03T15:45:08;18.90;39.60
5617;DHT22;2830;50.656;7.568;2023-05-03T15:47:36;18.70;38.50
5617;DHT22;2830;50.656;7.568;2023-05-03T15:50:03;18.60;38.90
5617;DHT22;2830;50.656;7.568;2023-05-03T15:52:32;18.70;41.10
5617;DHT22;2830;50.656;7.568;2023-05-03T15:55:00;18.70;39.80
5617;DHT22;2830;50.656;7.568;2023-05-03T15:57:27;18.70;39.10
5617;DHT22;2830;50.656;7.568;2023-05-03T15:59:55;18.70;39.70
5617;DHT22;2830;50.656;7.568;2023-05-03T16:02:22;18.60;38.30
5617;DHT22;2830;50.656;7.568;2023-05-03T16:04:49;18.50;39.70
5617;DHT22;2830;50.656;7.568;2023-05-03T16:07:16;18.40;38.30
5617;DHT22;2830;50.656;7.568;2023-05-03T16:09:43;18.50;39.10
5617;DHT22;2830;50.656;7.568;2023-05-03T16:12:10;18.60;39.50
5617;DHT22;2830;50.656;7.568;2023-05-03T16:14:37;18.60;40.10
5617;DHT22;2830;50.656;7.568;2023-05-03T16:17:04;18.60;38.30
5617;DHT22;2830;50.656;7.568;2023-05-03T16:19:30;18.50;37.00
5617;DHT22;2830;50.656;7.568;2023-05-03T16:21:57;18.50;38.20
5617;DHT22;2830;50.656;7.568;2023-05-03T16:24:24;18.50;38.60
5617;DHT22;2830;50.656;7.568;2023-05-03T16:26:51;18.50;37.30
5617;DHT22;2830;50.656;7.568;2023-05-03T16:29:18;18.50;37.90
5617;DHT22;2830;50.656;7.568;2023-05-03T16:31:45;18.50;38.40
5617;DHT22;2830;50.656;7.568;2023-05-03T16:34:12;18.40;38.10
5617;DHT22;2830;50.656;7.568;2023-05-03T16:36:40;18.50;37.70